createdAt,value
2023-12-15T00:00:01.457Z,9.45
2023-12-15T00:02:28.578Z,9.35
2023-12-15T00:04:55.821Z,8.48
2023-12-15T00:07:22.735Z,9.10
2023-12-15T00:09:49.558Z,9.90
2023-12-15T00:12:16.531Z,9.05
2023-12-15T00:14:43.516Z,9.95
2023-12-15T00:17:10.527Z,9.95
2023-12-15T00:19:37.436Z,10.07
2023-12-15T00:22:04.417Z,10.02
2023-12-15T00:24:31.246Z,10.68
2023-12-15T00:26:59.354Z,10.43
2023-12-15T00:29:27.006Z,10.43
2023-12-15T00:31:54.225Z,10.95
2023-12-15T00:34:21.273Z,10.95
2023-12-15T00:36:48.647Z,10.65
2023-12-15T00:39:15.643Z,10.43
2023-12-15T00:41:42.553Z,10.65
2023-12-15T00:44:09.767Z,10.70
2023-12-15T00:46:37.282Z,10.40
2023-12-15T00:49:04.588Z,10.95
2023-12-15T00:51:31.545Z,10.48
2023-12-15T00:53:58.661Z,11.57
2023-12-15T00:56:25.729Z,11.57
2023-12-15T00:58:52.617Z,10.80
2023-12-15T01:01:19.853Z,11.02
2023-12-15T01:03:46.909Z,11.40
2023-12-15T01:06:14.208Z,12.00
2023-12-15T01:08:41.124Z,11.32
2023-12-15T01:11:08.042Z,11.98
2023-12-15T01:13:35.001Z,11.73
2023-12-15T01:16:06.227Z,11.98
2023-12-15T01:18:33.620Z,11.88
2023-12-15T01:21:00.648Z,11.63
2023-12-15T01:23:27.615Z,12.35
2023-12-15T01:25:54.613Z,12.48
2023-12-15T01:28:21.607Z,11.82
2023-12-15T01:30:48.872Z,11.35
2023-12-15T01:33:15.941Z,12.07
2023-12-15T01:35:43.079Z,12.52
2023-12-15T01:38:10.120Z,13.13
2023-12-15T01:40:37.182Z,13.90
2023-12-15T01:43:04.587Z,12.93
2023-12-15T01:45:31.643Z,13.52
2023-12-15T01:47:58.970Z,13.10
2023-12-15T01:50:26.019Z,13.15
2023-12-15T01:52:52.992Z,13.48
2023-12-15T01:55:19.854Z,14.23
2023-12-15T01:57:46.826Z,13.68
2023-12-15T02:00:14.260Z,13.50
2023-12-15T02:02:41.188Z,14.48
2023-12-15T02:05:08.590Z,14.65
2023-12-15T02:07:35.798Z,16.95
2023-12-15T02:10:02.938Z,14.60
2023-12-15T02:12:29.914Z,14.57
2023-12-15T02:14:56.717Z,14.38
2023-12-15T02:17:23.710Z,15.35
2023-12-15T02:19:50.554Z,16.10
2023-12-15T02:22:17.642Z,16.90
2023-12-15T02:24:44.495Z,15.70
2023-12-15T02:27:14.415Z,16.08
2023-12-15T02:29:41.514Z,15.98
2023-12-15T02:32:10.456Z,17.17
2023-12-15T02:34:37.798Z,17.20
2023-12-15T02:37:05.164Z,18.00
2023-12-15T02:39:32.896Z,18.13
2023-12-15T02:41:59.767Z,18.05
2023-12-15T02:44:26.915Z,17.88
2023-12-15T02:46:54.021Z,17.70
2023-12-15T02:49:21.180Z,18.17
2023-12-15T02:51:48.150Z,19.30
2023-12-15T02:54:15.277Z,18.83
2023-12-15T02:56:42.221Z,19.00
2023-12-15T02:59:09.223Z,19.65
2023-12-15T03:01:36.361Z,21.35
2023-12-15T03:04:03.401Z,20.48
2023-12-15T03:06:30.576Z,20.52
2023-12-15T03:08:57.483Z,21.00
2023-12-15T03:11:24.685Z,20.85
2023-12-15T03:13:51.577Z,22.20
2023-12-15T03:16:18.809Z,22.27
2023-12-15T03:18:46.006Z,21.67
2023-12-15T03:21:12.872Z,21.08
2023-12-15T03:23:39.707Z,21.67
2023-12-15T03:26:07.891Z,22.70
2023-12-15T03:28:34.754Z,22.02
2023-12-15T03:31:01.538Z,22.23
2023-12-15T03:33:35.758Z,22.80
2023-12-15T03:36:06.245Z,22.33
2023-12-15T03:38:36.118Z,23.30
2023-12-15T03:41:03.090Z,23.10
2023-12-15T03:43:29.944Z,23.05
2023-12-15T03:45:57.270Z,22.00
2023-12-15T03:48:24.767Z,21.52
2023-12-15T03:50:52.045Z,21.52
2023-12-15T03:53:18.966Z,23.27
2023-12-15T03:55:46.118Z,22.13
2023-12-15T03:58:13.044Z,23.80
2023-12-15T04:00:40.089Z,22.75
2023-12-15T04:03:07.208Z,23.73
2023-12-15T04:05:34.331Z,21.83
2023-12-15T04:08:01.515Z,22.27
2023-12-15T04:10:28.537Z,21.50
2023-12-15T04:12:55.442Z,21.58
2023-12-15T04:15:22.374Z,21.20
2023-12-15T04:17:52.660Z,20.83
2023-12-15T04:20:19.884Z,21.65
2023-12-15T04:22:47.031Z,20.10
2023-12-15T04:25:14.307Z,20.10
2023-12-15T04:27:44.623Z,20.13
2023-12-15T04:30:12.322Z,20.95
2023-12-15T04:32:39.583Z,19.88
2023-12-15T04:35:07.352Z,19.45
2023-12-15T04:37:34.841Z,19.63
2023-12-15T04:40:01.936Z,19.73
2023-12-15T04:42:29.829Z,20.42
2023-12-15T04:44:56.785Z,18.63
2023-12-15T04:47:23.659Z,19.35
2023-12-15T04:49:50.568Z,18.92
2023-12-15T04:52:17.484Z,19.92
2023-12-15T04:54:44.429Z,19.02
2023-12-15T04:57:11.281Z,17.85
2023-12-15T04:59:41.482Z,18.55
2023-12-15T05:02:09.189Z,18.75
2023-12-15T05:04:38.539Z,18.02
2023-12-15T05:07:07.021Z,18.17
2023-12-15T05:09:34.086Z,16.58
2023-12-15T05:12:01.012Z,16.85
2023-12-15T05:14:27.883Z,18.10
2023-12-15T05:16:55.557Z,16.92
2023-12-15T05:19:22.744Z,16.35
2023-12-15T05:21:49.734Z,15.95
2023-12-15T05:24:17.302Z,16.10
2023-12-15T05:26:44.906Z,16.23
2023-12-15T05:29:12.316Z,15.63
2023-12-15T05:31:39.298Z,16.40
2023-12-15T05:34:06.738Z,15.20
2023-12-15T05:36:33.748Z,15.30
2023-12-15T05:39:00.648Z,14.63
2023-12-15T05:41:27.673Z,15.20
2023-12-15T05:43:54.750Z,14.85
2023-12-15T05:46:21.973Z,14.15
2023-12-15T05:48:49.220Z,15.75
2023-12-15T05:51:16.280Z,15.15
2023-12-15T05:53:52.728Z,15.10
2023-12-15T05:56:24.733Z,13.73
2023-12-15T05:58:51.663Z,13.85
2023-12-15T06:01:18.858Z,13.60
2023-12-15T06:03:45.909Z,13.75
2023-12-15T06:06:16.106Z,13.48
2023-12-15T06:08:43.043Z,14.10
2023-12-15T06:11:09.893Z,13.13
2023-12-15T06:13:36.839Z,13.32
2023-12-15T06:16:03.927Z,13.20
2023-12-15T06:18:31.005Z,12.68
2023-12-15T06:20:58.332Z,13.02
2023-12-15T06:23:25.502Z,12.25
2023-12-15T06:25:52.446Z,12.38
2023-12-15T06:28:20.387Z,11.90
2023-12-15T06:30:49.941Z,12.48
2023-12-15T06:33:17.024Z,12.15
2023-12-15T06:35:44.209Z,13.50
2023-12-15T06:38:11.304Z,13.48
2023-12-15T06:40:38.404Z,13.48
2023-12-15T06:43:05.434Z,12.45
2023-12-15T06:45:32.348Z,12.18
2023-12-15T06:47:59.660Z,12.27
2023-12-15T06:50:27.380Z,12.05
2023-12-15T06:52:54.878Z,11.65
2023-12-15T06:55:21.966Z,11.55
2023-12-15T06:57:50.614Z,12.55
2023-12-15T07:00:19.031Z,12.68
2023-12-15T07:02:45.934Z,11.95
2023-12-15T07:05:13.027Z,12.10
2023-12-15T07:07:40.223Z,11.68
2023-12-15T07:10:08.167Z,11.93
2023-12-15T07:12:35.287Z,12.70
2023-12-15T07:15:02.501Z,11.80
2023-12-15T07:17:29.421Z,11.60
2023-12-15T07:19:56.518Z,11.98
2023-12-15T07:22:23.680Z,11.02
2023-12-15T07:24:50.558Z,9.77
2023-12-15T07:27:17.457Z,11.15
2023-12-15T07:29:44.403Z,8.40
2023-12-15T07:32:11.335Z,8.05
2023-12-15T07:34:38.307Z,7.55
2023-12-15T07:37:05.341Z,6.32
2023-12-15T07:39:32.186Z,7.22
2023-12-15T07:41:59.047Z,7.05
2023-12-15T07:44:26.110Z,6.60
2023-12-15T07:46:56.148Z,6.68
2023-12-15T07:49:24.822Z,6.80
2023-12-15T07:51:52.269Z,5.85
2023-12-15T07:54:22.234Z,5.32
2023-12-15T07:56:49.123Z,5.18
2023-12-15T07:59:17.029Z,5.28
2023-12-15T08:01:53.712Z,4.63
2023-12-15T08:04:20.935Z,4.50
2023-12-15T08:06:48.132Z,5.40
2023-12-15T08:09:15.051Z,5.28
2023-12-15T08:11:42.080Z,5.15
2023-12-15T08:14:09.057Z,5.40
2023-12-15T08:16:36.141Z,4.25
2023-12-15T08:19:06.762Z,5.28
2023-12-15T08:21:33.691Z,5.30
2023-12-15T08:24:00.782Z,6.70
2023-12-15T08:26:31.435Z,6.63
2023-12-15T08:28:58.345Z,7.10
2023-12-15T08:31:25.778Z,7.35
2023-12-15T08:33:53.805Z,7.03
2023-12-15T08:36:21.655Z,7.38
2023-12-15T08:38:48.601Z,6.95
2023-12-15T08:41:15.750Z,6.57
2023-12-15T08:43:42.966Z,6.93
2023-12-15T08:46:09.906Z,7.22
2023-12-15T08:48:36.950Z,8.77
2023-12-15T08:51:03.965Z,7.82
2023-12-15T08:53:30.969Z,8.50
2023-12-15T08:55:57.943Z,7.25
2023-12-15T08:58:25.075Z,7.53
2023-12-15T09:00:52.071Z,8.35
2023-12-15T09:03:19.599Z,7.80
2023-12-15T09:06:07.666Z,7.95
2023-12-15T09:08:33.584Z,8.88
2023-12-15T09:11:00.555Z,9.20
2023-12-15T09:13:27.552Z,8.93
2023-12-15T09:15:55.313Z,7.57
2023-12-15T09:18:22.301Z,8.13
2023-12-15T09:20:49.252Z,9.60
2023-12-15T09:23:16.259Z,9.70
2023-12-15T09:25:43.410Z,8.85
2023-12-15T09:28:11.199Z,8.15
2023-12-15T09:30:38.391Z,9.57
2023-12-15T09:33:05.738Z,9.52
2023-12-15T09:35:32.890Z,8.15
2023-12-15T09:38:00.147Z,9.05
2023-12-15T09:40:31.205Z,9.35
2023-12-15T09:42:58.194Z,9.45
2023-12-15T09:45:25.382Z,9.38
2023-12-15T09:47:53.230Z,10.07
2023-12-15T09:50:26.329Z,8.88
2023-12-15T09:52:54.518Z,8.90
2023-12-15T09:55:21.845Z,9.30
2023-12-15T09:57:49.476Z,8.77
2023-12-15T10:00:17.313Z,8.88
2023-12-15T10:02:44.803Z,9.43
2023-12-15T10:05:12.326Z,10.15
2023-12-15T10:07:39.379Z,8.73
2023-12-15T10:10:06.606Z,8.43
2023-12-15T10:12:33.507Z,8.07
2023-12-15T10:15:00.693Z,9.23
2023-12-15T10:17:28.374Z,9.07
2023-12-15T10:20:12.487Z,8.02
2023-12-15T10:22:41.118Z,7.65
2023-12-15T10:25:20.787Z,7.63
2023-12-15T10:27:51.767Z,7.88
2023-12-15T10:30:21.576Z,7.20
2023-12-15T10:32:49.917Z,7.65
2023-12-15T10:35:18.415Z,7.07
2023-12-15T10:37:47.266Z,5.50
2023-12-15T10:40:15.054Z,6.22
2023-12-15T10:42:43.225Z,5.50
2023-12-15T10:45:10.859Z,5.15
2023-12-15T10:47:38.858Z,5.18
2023-12-15T10:50:08.879Z,5.07
2023-12-15T10:52:38.011Z,6.15
2023-12-15T10:55:07.818Z,5.75
2023-12-15T10:57:34.944Z,6.40
2023-12-15T11:00:04.561Z,6.50
2023-12-15T11:02:33.135Z,6.10
2023-12-15T11:05:00.934Z,7.20
2023-12-15T11:07:29.746Z,6.28
2023-12-15T11:10:00.190Z,7.97
2023-12-15T11:12:38.740Z,6.88
2023-12-15T11:15:10.945Z,6.65
2023-12-15T11:17:48.186Z,6.40
2023-12-15T11:20:21.539Z,6.90
2023-12-15T11:22:57.713Z,7.40
2023-12-15T11:25:37.983Z,6.32
2023-12-15T11:28:09.621Z,7.00
2023-12-15T11:30:45.456Z,5.90
2023-12-15T11:33:42.086Z,6.10
2023-12-15T11:36:11.290Z,6.13
2023-12-15T11:38:39.221Z,5.95
2023-12-15T11:41:08.052Z,6.10
2023-12-15T11:43:37.815Z,5.75
2023-12-15T11:46:06.096Z,6.35
2023-12-15T11:48:37.298Z,6.05
2023-12-15T11:51:06.041Z,5.45
2023-12-15T11:53:34.338Z,6.40
2023-12-15T11:56:03.132Z,5.75
2023-12-15T11:58:30.405Z,5.78
2023-12-15T12:00:57.717Z,5.90
2023-12-15T12:03:25.315Z,5.93
2023-12-15T12:05:56.490Z,6.65
2023-12-15T12:08:24.886Z,5.97
2023-12-15T12:10:55.661Z,6.20
2023-12-15T12:13:32.275Z,5.57
2023-12-15T12:15:59.340Z,5.68
2023-12-15T12:18:27.856Z,6.90
2023-12-15T12:20:57.003Z,5.93
2023-12-15T12:23:39.470Z,6.68
2023-12-15T12:26:11.052Z,7.03
2023-12-15T12:28:52.817Z,7.90
2023-12-15T12:31:21.277Z,7.85
2023-12-15T12:33:48.938Z,8.23
2023-12-15T12:36:17.099Z,8.52
2023-12-15T12:38:46.178Z,9.10
2023-12-15T12:41:13.725Z,9.65
2023-12-15T12:43:42.122Z,8.93
2023-12-15T12:46:13.293Z,7.97
2023-12-15T12:48:40.859Z,7.00
2023-12-15T12:51:07.967Z,7.15
2023-12-15T12:53:34.898Z,7.40
2023-12-15T12:56:01.870Z,7.70
2023-12-15T12:58:29.079Z,6.85
2023-12-15T13:00:56.326Z,6.78
2023-12-15T13:03:24.192Z,6.38
2023-12-15T13:05:51.543Z,7.80
2023-12-15T13:08:18.538Z,7.05
2023-12-15T13:10:45.498Z,6.45
2023-12-15T13:13:14.226Z,6.70
2023-12-15T13:15:41.565Z,7.20
2023-12-15T13:18:11.250Z,5.78
2023-12-15T13:20:40.309Z,6.22
2023-12-15T13:23:10.481Z,5.75
2023-12-15T13:25:37.914Z,6.05
2023-12-15T13:28:07.316Z,5.53
2023-12-15T13:30:34.856Z,5.47
2023-12-15T13:33:02.148Z,6.45
2023-12-15T13:35:29.301Z,5.75
2023-12-15T13:37:56.671Z,6.70
2023-12-15T13:40:23.757Z,6.97
2023-12-15T13:42:50.895Z,6.30
2023-12-15T13:45:19.402Z,5.85
2023-12-15T13:47:46.473Z,5.65
2023-12-15T13:50:13.562Z,5.70
2023-12-15T13:52:40.851Z,6.45
2023-12-15T13:55:08.870Z,6.10
2023-12-15T13:57:36.052Z,5.80
2023-12-15T14:00:04.475Z,5.30
2023-12-15T14:02:32.593Z,4.18
2023-12-15T14:05:01.315Z,5.75
2023-12-15T14:07:30.796Z,4.80
2023-12-15T14:09:57.727Z,5.55
2023-12-15T14:12:28.244Z,5.60
2023-12-15T14:14:57.677Z,6.10
2023-12-15T14:17:29.266Z,5.90
2023-12-15T14:19:57.747Z,6.38
2023-12-15T14:22:24.957Z,5.88
2023-12-15T14:24:51.962Z,5.97
2023-12-15T14:27:19.059Z,6.45
2023-12-15T14:29:48.027Z,6.43
2023-12-15T14:32:16.953Z,5.30
2023-12-15T14:34:44.094Z,4.72
2023-12-15T14:37:11.077Z,5.90
2023-12-15T14:39:39.316Z,5.18
2023-12-15T14:42:06.570Z,5.13
2023-12-15T14:44:33.712Z,5.43
2023-12-15T14:47:03.047Z,5.20
2023-12-15T14:49:31.170Z,4.85
2023-12-15T14:51:58.188Z,5.93
2023-12-15T14:54:25.244Z,5.07
2023-12-15T14:56:52.456Z,5.00
2023-12-15T14:59:19.799Z,4.38
2023-12-15T15:01:47.739Z,4.80
2023-12-15T15:04:14.845Z,5.72
2023-12-15T15:06:46.159Z,4.38
2023-12-15T15:09:14.237Z,5.03
2023-12-15T15:11:41.263Z,4.07
2023-12-15T15:14:08.790Z,5.10
2023-12-15T15:16:36.280Z,5.38
2023-12-15T15:19:03.730Z,5.05
2023-12-15T15:21:31.039Z,5.40
2023-12-15T15:23:59.246Z,5.70
2023-12-15T15:26:28.785Z,4.68
2023-12-15T15:28:57.181Z,4.80
2023-12-15T15:31:26.115Z,4.78
2023-12-15T15:33:56.596Z,5.32
2023-12-15T15:36:25.260Z,5.20
2023-12-15T15:38:53.164Z,6.95
2023-12-15T15:41:20.068Z,6.35
2023-12-15T15:43:50.287Z,6.90
2023-12-15T15:46:21.215Z,6.70
2023-12-15T15:48:51.674Z,7.63
2023-12-15T15:51:25.366Z,7.03
2023-12-15T15:53:53.067Z,7.75
2023-12-15T15:56:20.579Z,6.15
2023-12-15T15:58:47.489Z,6.57
2023-12-15T16:01:36.400Z,7.03
2023-12-15T16:04:11.046Z,6.13
2023-12-15T16:06:38.735Z,7.00
2023-12-15T16:09:07.853Z,7.18
2023-12-15T16:11:36.278Z,6.32
2023-12-15T16:14:08.755Z,6.18
2023-12-15T16:16:38.533Z,6.25
2023-12-15T16:19:05.480Z,5.05
2023-12-15T16:21:36.609Z,20.08
2023-12-15T16:24:06.198Z,20.40
2023-12-15T16:26:33.178Z,12.95
2023-12-15T16:29:00.038Z,9.05
2023-12-15T16:31:27.256Z,14.38
2023-12-15T16:33:55.644Z,10.20
2023-12-15T16:36:23.840Z,10.98
2023-12-15T16:38:51.270Z,7.07
2023-12-15T16:41:25.631Z,14.23
2023-12-15T16:43:52.897Z,8.90
2023-12-15T16:46:19.890Z,12.27
2023-12-15T16:48:55.398Z,13.02
2023-12-15T16:51:24.716Z,11.32
2023-12-15T16:53:54.970Z,13.70
2023-12-15T16:56:22.306Z,21.42
2023-12-15T16:58:49.737Z,15.57
2023-12-15T17:01:16.958Z,6.40
2023-12-15T17:03:46.189Z,9.45
2023-12-15T17:06:14.488Z,8.00
2023-12-15T17:08:45.166Z,6.80
2023-12-15T17:11:13.745Z,7.45
2023-12-15T17:13:41.825Z,7.05
2023-12-15T17:16:15.078Z,7.25
2023-12-15T17:18:42.988Z,6.38
2023-12-15T17:21:13.818Z,7.40
2023-12-15T17:23:41.132Z,6.18
2023-12-15T17:26:08.348Z,7.05
2023-12-15T17:28:35.494Z,7.00
2023-12-15T17:31:04.527Z,6.68
2023-12-15T17:33:32.746Z,6.80
2023-12-15T17:36:00.149Z,7.18
2023-12-15T17:38:27.312Z,8.02
2023-12-15T17:40:54.450Z,18.92
2023-12-15T17:43:22.573Z,8.80
2023-12-15T17:45:49.729Z,7.22
2023-12-15T17:48:16.902Z,7.40
2023-12-15T17:50:44.281Z,6.60
2023-12-15T17:53:11.412Z,6.47
2023-12-15T17:55:38.281Z,7.43
2023-12-15T17:58:06.114Z,7.40
2023-12-15T18:00:34.421Z,8.18
2023-12-15T18:03:02.252Z,6.72
2023-12-15T18:05:29.067Z,7.97
2023-12-15T18:08:00.284Z,9.48
2023-12-15T18:10:28.087Z,9.48
2023-12-15T18:12:58.373Z,8.88
2023-12-15T18:15:25.303Z,8.65
2023-12-15T18:17:52.467Z,7.50
2023-12-15T18:20:19.811Z,8.65
2023-12-15T18:22:47.267Z,8.60
2023-12-15T18:25:18.004Z,9.20
2023-12-15T18:27:45.665Z,7.72
2023-12-15T18:30:16.118Z,8.35
2023-12-15T18:32:43.961Z,7.25
2023-12-15T18:35:10.934Z,7.03
2023-12-15T18:37:38.688Z,7.22
2023-12-15T18:40:09.888Z,7.53
2023-12-15T18:42:37.341Z,7.72
2023-12-15T18:45:04.870Z,8.52
2023-12-15T18:47:32.275Z,8.55
2023-12-15T18:50:03.276Z,7.63
2023-12-15T18:52:31.180Z,8.00
2023-12-15T18:54:58.289Z,8.05
2023-12-15T18:57:26.595Z,8.48
2023-12-15T18:59:55.498Z,8.57
2023-12-15T19:02:23.057Z,11.10
2023-12-15T19:04:50.303Z,9.07
2023-12-15T19:07:18.185Z,10.45
2023-12-15T19:09:45.380Z,9.25
2023-12-15T19:12:12.318Z,11.43
2023-12-15T19:14:39.536Z,23.45
2023-12-15T19:17:06.592Z,15.02
2023-12-15T19:19:33.631Z,11.63
2023-12-15T19:22:00.583Z,8.98
2023-12-15T19:24:27.674Z,8.85
2023-12-15T19:26:55.049Z,9.60
2023-12-15T19:29:21.999Z,9.30
2023-12-15T19:31:48.993Z,9.07
2023-12-15T19:34:16.381Z,11.48
2023-12-15T19:36:43.490Z,31.05
2023-12-15T19:39:10.820Z,16.38
2023-12-15T19:41:39.478Z,11.35
2023-12-15T19:44:07.230Z,9.20
2023-12-15T19:46:38.081Z,8.90
2023-12-15T19:49:11.506Z,9.52
2023-12-15T19:51:38.731Z,9.65
2023-12-15T19:54:13.024Z,9.10
2023-12-15T19:56:47.718Z,9.57
2023-12-15T19:59:17.788Z,9.38
2023-12-15T20:01:47.586Z,9.38
2023-12-15T20:04:15.156Z,9.35
2023-12-15T20:06:42.022Z,8.88
2023-12-15T20:09:09.346Z,9.60
2023-12-15T20:11:38.366Z,9.82
2023-12-15T20:14:07.420Z,9.18
2023-12-15T20:16:35.596Z,9.23
2023-12-15T20:19:03.065Z,9.07
2023-12-15T20:21:30.929Z,9.25
2023-12-15T20:23:59.117Z,9.93
2023-12-15T20:26:26.637Z,9.38
2023-12-15T20:28:54.553Z,9.68
2023-12-15T20:31:23.563Z,9.57
2023-12-15T20:33:50.962Z,9.30
2023-12-15T20:36:22.403Z,9.98
2023-12-15T20:38:49.587Z,9.02
2023-12-15T20:41:21.144Z,9.50
2023-12-15T20:43:49.228Z,9.07
2023-12-15T20:46:17.002Z,9.85
2023-12-15T20:48:44.724Z,9.80
2023-12-15T20:51:24.211Z,11.18
2023-12-15T20:53:51.383Z,10.15
2023-12-15T20:56:29.405Z,17.50
2023-12-15T20:58:57.005Z,13.93
2023-12-15T21:01:24.348Z,10.20
2023-12-15T21:03:55.510Z,10.20
2023-12-15T21:06:24.671Z,10.10
2023-12-15T21:08:55.436Z,10.23
2023-12-15T21:11:22.524Z,10.60
2023-12-15T21:13:52.554Z,10.15
2023-12-15T21:16:27.972Z,10.32
2023-12-15T21:18:55.951Z,10.82
2023-12-15T21:21:31.751Z,9.48
2023-12-15T21:23:59.297Z,9.20
2023-12-15T21:26:26.463Z,10.23
2023-12-15T21:28:56.034Z,10.38
2023-12-15T21:31:23.257Z,10.18
2023-12-15T21:33:50.391Z,9.82
2023-12-15T21:36:17.595Z,10.57
2023-12-15T21:38:44.457Z,10.30
2023-12-15T21:41:16.550Z,10.95
2023-12-15T21:43:43.840Z,11.48
2023-12-15T21:46:10.676Z,11.75
2023-12-15T21:48:37.747Z,11.15
2023-12-15T21:51:05.206Z,10.82
2023-12-15T21:53:32.381Z,10.43
2023-12-15T21:55:59.444Z,9.77
2023-12-15T21:58:26.615Z,10.35
2023-12-15T22:00:53.829Z,10.02
2023-12-15T22:03:20.766Z,10.63
2023-12-15T22:05:47.663Z,10.38
2023-12-15T22:08:14.598Z,9.57
2023-12-15T22:10:41.575Z,10.57
2023-12-15T22:13:08.881Z,9.50
2023-12-15T22:15:36.039Z,9.63
2023-12-15T22:18:03.104Z,9.40
2023-12-15T22:20:31.507Z,9.95
2023-12-15T22:22:58.659Z,9.65
2023-12-15T22:25:25.935Z,10.00
2023-12-15T22:27:53.005Z,10.48
2023-12-15T22:30:25.363Z,9.75
2023-12-15T22:32:53.288Z,9.43
2023-12-15T22:35:20.481Z,9.77
2023-12-15T22:37:47.934Z,9.80
2023-12-15T22:40:15.041Z,10.43
2023-12-15T22:42:42.009Z,10.75
2023-12-15T22:45:09.601Z,11.02
2023-12-15T22:47:38.563Z,10.18
2023-12-15T22:50:07.032Z,10.02
2023-12-15T22:52:34.181Z,10.35
2023-12-15T22:55:01.273Z,9.75
2023-12-15T22:57:28.144Z,9.80
2023-12-15T22:59:55.328Z,11.02
2023-12-15T23:02:23.825Z,10.10
2023-12-15T23:04:51.886Z,10.63
2023-12-15T23:07:19.032Z,10.48
2023-12-15T23:09:46.366Z,10.43
2023-12-15T23:12:13.502Z,10.10
2023-12-15T23:14:41.574Z,10.10
2023-12-15T23:17:10.053Z,10.55
2023-12-15T23:19:37.213Z,14.70
2023-12-15T23:22:04.572Z,18.98
2023-12-15T23:24:31.807Z,14.90
2023-12-15T23:26:58.845Z,16.75
2023-12-15T23:29:25.899Z,10.98
2023-12-15T23:31:52.881Z,18.35
2023-12-15T23:34:20.918Z,12.90
2023-12-15T23:36:47.958Z,8.45
2023-12-15T23:39:15.549Z,8.80
2023-12-15T23:41:43.433Z,7.32
2023-12-15T23:44:10.697Z,7.00
2023-12-15T23:46:40.012Z,7.45
2023-12-15T23:49:07.382Z,7.65
2023-12-15T23:51:34.673Z,6.88
2023-12-15T23:54:02.009Z,6.60
2023-12-15T23:56:29.214Z,6.60
2023-12-15T23:58:56.956Z,6.22
